tititudorancea.com
Station Historical Data
Daily Summary for March 14, 2019 Units:  Metric    English   Both
« Previous Day
Next Day »
Daily Weekly Monthly Yearly Custom
  High: Low: Average:
Temperature: -17.8 °C 6.5 °C 13.4 °C
Dew Point: -17.8 °C 4.3 °C 6 °C
Humidity: Humidity % 30 % 64 %
Wind Speed: 0 km/h 0 km/h 9 km/h
Wind Gust: 0 km/h - -
Wind:- - South
Pressure: 0 hPa 1012.8 hPa -
Precipitation: 0 mm    
Historical Graphs
 
 
Ararat weather Find more about Weather in Ararat, AU


 



 


Tabular Data for March 14, 2019
Time Temperature Dew Point Pressure Wind Wind Speed Wind Gust Humidity Rainfall Rate (Hourly)
-17.8 °C -17.8 °C 0 hPa Calm     Humidity % 0 mm
00:00 12.3 °C 4.9 °C 1017.5 hPa SSE 4.8 km/h 8 km/h 61 % 0 mm
00:04 11.5 °C 6 °C 1017.5 hPa SSE 8 km/h 5.6 km/h 69 % 0 mm
00:05 12.2 °C 5.2 °C 1017.8 hPa SSE 4.8 km/h 9.7 km/h 62 % 0 mm
00:09 11.5 °C 6 °C 1017.5 hPa SSE 5.6 km/h 2.9 km/h 69 % 0 mm
00:10 12.2 °C 5.4 °C 1017.8 hPa SSE 4.8 km/h 9.7 km/h 63 % 0 mm
00:14 11.4 °C 5.9 °C 1017.5 hPa SSE 5.6 km/h 1.1 km/h 69 % 0 mm
00:15 12.2 °C 5.6 °C 1017.8 hPa SSE 8 km/h 11.3 km/h 64 % 0 mm
00:19 11.4 °C 5.9 °C 1017.5 hPa SSE 8 km/h 2.4 km/h 69 % 0 mm
00:20 12.3 °C 5.7 °C 1017.8 hPa SSE 4.8 km/h 12.9 km/h 64 % 0 mm
00:24 11.4 °C 5.9 °C 1017.5 hPa SSE 11.1 km/h 8 km/h 69 % 0 mm
00:25 12.3 °C 5.9 °C 1017.8 hPa SSE 4.8 km/h 11.3 km/h 65 % 0 mm
00:29 11.4 °C 6.1 °C 1017.5 hPa SSE 6.4 km/h 5.5 km/h 70 % 0 mm
00:30 12.3 °C 5.9 °C 1017.8 hPa SSE 4.8 km/h 11.3 km/h 65 % 0 mm
00:34 11.4 °C 6.1 °C 1017.5 hPa SSE 9.3 km/h 8.9 km/h 70 % 0 mm
00:35 12.3 °C 5.9 °C 1017.8 hPa SSE 4.8 km/h 11.3 km/h 65 % 0 mm
00:39 11.3 °C 6 °C 1017.5 hPa SSE 11.1 km/h 6.8 km/h 70 % 0 mm
00:40 12.3 °C 5.9 °C 1017.8 hPa SSE 4.8 km/h 11.3 km/h 65 % 0 mm
00:44 11.2 °C 5.9 °C 1017.5 hPa SSE 9.3 km/h 7.1 km/h 70 % 0 mm
00:45 12.3 °C 5.9 °C 1017.5 hPa SSE 4.8 km/h 11.3 km/h 65 % 0 mm
00:49 11.1 °C 6.1 °C 1017.5 hPa SSE 9.3 km/h 7.9 km/h 71 % 0 mm
00:50 12.2 °C 6.1 °C 1017.5 hPa SSE 3.2 km/h 8 km/h 66 % 0 mm
00:54 11.1 °C 6 °C 1017.5 hPa SSE 11.1 km/h 6.1 km/h 71 % 0 mm
00:55 12.2 °C 6 °C 1017.5 hPa SSE 4.8 km/h 12.9 km/h 66 % 0 mm
00:59 11 °C 5.9 °C 1017.5 hPa SSE 9.3 km/h 7.4 km/h 71 % 0 mm
01:00 12.1 °C 5.9 °C 1017.2 hPa SSE 4.8 km/h 11.3 km/h 66 % 0 mm
01:04 10.9 °C 5.9 °C 1017.2 hPa SSE 9.7 km/h 6.9 km/h 71 % 0 mm
01:05 12 °C 6.1 °C 1017.2 hPa SSE 8 km/h 14.5 km/h 67 % 0 mm
01:09 10.9 °C 6.1 °C 1017.5 hPa SSE 13 km/h 5.8 km/h 72 % 0 mm
01:10 11.9 °C 6 °C 1017.2 hPa SSE 4.8 km/h 12.9 km/h 67 % 0 mm
01:14 10.9 °C 6.1 °C 1017.2 hPa SSE 5.6 km/h 2.4 km/h 72 % 0 mm
01:15 11.9 °C 5.9 °C 1017.2 hPa SSE 8 km/h 14.5 km/h 67 % 0 mm
01:19 10.9 °C 6.1 °C 1017.2 hPa SSE 5.6 km/h 0.6 km/h 72 % 0 mm
01:20 11.8 °C 6.1 °C 1017.2 hPa SSE 4.8 km/h 14.5 km/h 68 % 0 mm
01:24 10.8 °C 6 °C 1017.2 hPa SSE 7.4 km/h 3.2 km/h 72 % 0 mm
01:25 11.7 °C 5.9 °C 1017.2 hPa SSE 9.7 km/h 11.3 km/h 68 % 0 mm
01:29 10.8 °C 5.9 °C 1017.2 hPa SSE 1.9 km/h 1 km/h 72 % 0 mm
01:30 11.6 °C 5.9 °C 1017.2 hPa SSE 4.8 km/h 11.3 km/h 68 % 0 mm
01:34 10.7 °C 5.9 °C 1017.2 hPa SSE 6.4 km/h 2.1 km/h 72 % 0 mm
01:35 11.6 °C 6.1 °C 1017.2 hPa SSE 4.8 km/h 9.7 km/h 69 % 0 mm
01:39 10.7 °C 6 °C 1017.2 hPa SSE 7.4 km/h 3.4 km/h 73 % 0 mm
01:40 11.6 °C 6.1 °C 1017.2 hPa SSE 3.2 km/h 8 km/h 69 % 0 mm
01:44 10.6 °C 5.9 °C 1017.2 hPa SSE 9.3 km/h 6.6 km/h 73 % 0 mm
01:45 11.6 °C 6.1 °C 1017.5 hPa SSE 4.8 km/h 9.7 km/h 69 % 0 mm
01:49 10.6 °C 5.9 °C 1017.2 hPa SSE 5.6 km/h 4.3 km/h 73 % 0 mm
01:50 11.6 °C 6.1 °C 1017.5 hPa SSE 4.8 km/h 8 km/h 69 % 0 mm
01:54 10.6 °C 6.1 °C 1017.2 hPa SSE 8 km/h 6.1 km/h 74 % 0 mm
01:55 11.6 °C 6.1 °C 1017.5 hPa SSE 4.8 km/h 9.7 km/h 69 % 0 mm
01:59 10.5 °C 6.1 °C 1017.2 hPa SSE 5.6 km/h 4.7 km/h 74 % 0 mm
02:00 11.6 °C 6.1 °C 1017.5 hPa SSE 9.7 km/h 12.9 km/h 69 % 0 mm
02:04 10.5 °C 6.1 °C 1017.2 hPa SSE 9.3 km/h 8 km/h 74 % 0 mm
02:05 11.6 °C 6.1 °C 1017.5 hPa SSE 8 km/h 11.3 km/h 69 % 0 mm
02:09 10.5 °C 6.1 °C 1017.2 hPa SSE 9.7 km/h 7.1 km/h 74 % 0 mm
02:10 11.5 °C 6 °C 1017.5 hPa SSE 1.6 km/h 11.3 km/h 69 % 0 mm
02:14 10.6 °C 6.1 °C 1017.2 hPa SSE 13 km/h 4.2 km/h 74 % 0 mm
02:15 11.5 °C 6 °C 1017.5 hPa SSE 4.8 km/h 11.3 km/h 69 % 0 mm
02:19 10.6 °C 6.1 °C 1017.2 hPa SSE 7.4 km/h 3.2 km/h 74 % 0 mm
02:20 11.4 °C 5.9 °C 1017.5 hPa SSE 8 km/h 9.7 km/h 69 % 0 mm
02:24 10.6 °C 6.1 °C 1017.2 hPa SSE 6.4 km/h 5.8 km/h 74 % 0 mm
02:25 11.4 °C 5.9 °C 1017.5 hPa SSE 1.6 km/h 8 km/h 69 % 0 mm
02:29 10.6 °C 6.2 °C 1016.8 hPa SSE 6.4 km/h 4.3 km/h 74 % 0 mm
02:30 11.4 °C 5.9 °C 1017.5 hPa SSE 8 km/h 11.3 km/h 69 % 0 mm
02:34 10.6 °C 6.2 °C 1016.8 hPa SSE 9.3 km/h 3.7 km/h 74 % 0 mm
02:35 11.4 °C 6.1 °C 1017.5 hPa SSE 3.2 km/h 9.7 km/h 70 % 0 mm
02:39 10.6 °C 6.2 °C 1016.8 hPa SSE 5.6 km/h 3.9 km/h 74 % 0 mm
02:40 11.3 °C 6.1 °C 1017.5 hPa SSE 8 km/h 11.3 km/h 70 % 0 mm
02:44 10.6 °C 6.2 °C 1016.8 hPa SSE 3.7 km/h 2.1 km/h 74 % 0 mm
02:45 11.2 °C 5.9 °C 1017.5 hPa SSE 8 km/h 11.3 km/h 70 % 0 mm
02:49 10.6 °C 6.3 °C 1016.8 hPa SSE 9.3 km/h 5.5 km/h 75 % 0 mm
02:50 11.2 °C 5.9 °C 1017.5 hPa SSE 4.8 km/h 11.3 km/h 70 % 0 mm
02:54 10.6 °C 6.3 °C 1016.8 hPa SSE 7.4 km/h 6.1 km/h 75 % 0 mm
02:55 11.1 °C 6.1 °C 1017.5 hPa SSE 8 km/h 11.3 km/h 71 % 0 mm
02:59 10.6 °C 6.2 °C 1016.5 hPa SSE 8 km/h 6.8 km/h 74 % 0 mm
03:00 11.1 °C 6 °C 1017.5 hPa SSE 4.8 km/h 12.9 km/h 71 % 0 mm
03:04 10.6 °C 6.2 °C 1016.5 hPa SSE 8 km/h 6 km/h 74 % 0 mm
03:05 11 °C 5.9 °C 1017.5 hPa SSE 4.8 km/h 11.3 km/h 71 % 0 mm
03:09 10.6 °C 6.3 °C 1016.5 hPa SSE 5.6 km/h 4.3 km/h 75 % 0 mm
03:10 10.9 °C 5.9 °C 1017.2 hPa SSE 9.7 km/h 12.9 km/h 71 % 0 mm
03:14 10.5 °C 6.3 °C 1016.5 hPa SSE 7.4 km/h 5.6 km/h 75 % 0 mm
03:15 10.9 °C 6.1 °C 1017.2 hPa SSE 8 km/h 12.9 km/h 72 % 0 mm
03:19 10.5 °C 6.3 °C 1016.5 hPa SSE 7.4 km/h 5.6 km/h 75 % 0 mm
03:20 10.9 °C 6.1 °C 1017.2 hPa SSE 1.6 km/h 9.7 km/h 72 % 0 mm
03:24 10.4 °C 6.2 °C 1016.5 hPa SSE 6.4 km/h 4.2 km/h 75 % 0 mm
03:25 10.9 °C 6.1 °C 1017.2 hPa SSE 1.6 km/h 8 km/h 72 % 0 mm
03:29 10.4 °C 6.2 °C 1016.1 hPa SSE 8 km/h 5 km/h 75 % 0 mm
03:30 10.8 °C 5.9 °C 1017.2 hPa SSE 3.2 km/h 8 km/h 72 % 0 mm
03:34 10.3 °C 6.1 °C 1016.1 hPa SSE 9.7 km/h 5.3 km/h 75 % 0 mm
03:35 10.7 °C 6.1 °C 1017.2 hPa SSE 3.2 km/h 6.4 km/h 73 % 0 mm
03:39 10.3 °C 6.1 °C 1016.1 hPa SSE 9.3 km/h 6 km/h 75 % 0 mm
03:40 10.7 °C 6.1 °C 1017.2 hPa SSE 4.8 km/h 8 km/h 73 % 0 mm
03:44 10.3 °C 6.1 °C 1016.1 hPa SSE 7.4 km/h 4.2 km/h 75 % 0 mm
03:45 10.7 °C 6 °C 1017.2 hPa SSE 4.8 km/h 8 km/h 73 % 0 mm
03:49 10.2 °C 6.2 °C 1016.1 hPa SSE 5.6 km/h 5.8 km/h 76 % 0 mm
03:50 10.6 °C 5.9 °C 1017.2 hPa SSE 4.8 km/h 11.3 km/h 73 % 0 mm
03:54 10.1 °C 6.1 °C 1016.1 hPa SSE 7.4 km/h 4.5 km/h 76 % 0 mm
03:55 10.6 °C 5.9 °C 1017.2 hPa SSE 3.2 km/h 8 km/h 73 % 0 mm
03:59 10.1 °C 6 °C 1016.1 hPa SSE 5.6 km/h 3.7 km/h 76 % 0 mm
04:00 10.6 °C 6.1 °C 1017.2 hPa SSE 4.8 km/h 8 km/h 74 % 0 mm
04:04 10 °C 5.9 °C 1016.1 hPa SSE 3.7 km/h 1.6 km/h 76 % 0 mm
04:05 10.5 °C 6.1 °C 1017.2 hPa SSE 4.8 km/h 8 km/h 74 % 0 mm
04:09 9.9 °C 6.1 °C 1016.1 hPa SSE 5.6 km/h 4.5 km/h 77 % 0 mm
04:10 10.5 °C 6.1 °C 1017.2 hPa SSE 4.8 km/h 11.3 km/h 74 % 0 mm
04:14 9.9 °C 6.1 °C 1016.1 hPa SSE 7.4 km/h 3.4 km/h 77 % 0 mm
04:15 10.5 °C 6.1 °C 1017.2 hPa SSE 4.8 km/h 11.3 km/h 74 % 0 mm
04:19 9.8 °C 6 °C 1016.1 hPa SSE 5.6 km/h 2.3 km/h 77 % 0 mm
04:20 10.6 °C 6.1 °C 1017.2 hPa SSE 4.8 km/h 12.9 km/h 74 % 0 mm
04:24 9.8 °C 5.9 °C 1015.8 hPa SSE 5.6 km/h 1.6 km/h 77 % 0 mm
04:25 10.6 °C 6.1 °C 1016.8 hPa SSE 4.8 km/h 11.3 km/h 74 % 0 mm
04:29 9.7 °C 6 °C 1016.1 hPa SSE 5.6 km/h 3.5 km/h 78 % 0 mm
04:30 10.6 °C 6.1 °C 1017.2 hPa SSE 4.8 km/h 8 km/h 74 % 0 mm
04:34 9.5 °C 5.8 °C 1015.8 hPa SSE 3.7 km/h 2.9 km/h 78 % 0 mm
04:35 10.6 °C 6.2 °C 1016.8 hPa SSE 4.8 km/h 8 km/h 74 % 0 mm
04:39 9.4 °C 6 °C 1015.8 hPa SSE 7.4 km/h 4.2 km/h 79 % 0 mm
04:40 10.6 °C 6.2 °C 1016.8 hPa SSE 1.6 km/h 9.7 km/h 74 % 0 mm
04:44 9.4 °C 5.9 °C 1015.8 hPa SSE 7.4 km/h 6.8 km/h 79 % 0 mm
04:45 10.6 °C 6.2 °C 1016.8 hPa SSE 1.6 km/h 6.4 km/h 74 % 0 mm
04:49 9.4 °C 5.9 °C 1015.8 hPa SSE 8 km/h 6.9 km/h 79 % 0 mm
04:50 10.6 °C 6.2 °C 1016.8 hPa SSE 4.8 km/h 9.7 km/h 74 % 0 mm
04:54 9.4 °C 5.9 °C 1015.5 hPa South 9.3 km/h 7.4 km/h 79 % 0 mm
04:55 10.6 °C 6.3 °C 1016.8 hPa SSE 4.8 km/h 9.7 km/h 75 % 0 mm
04:59 9.3 °C 6.1 °C 1015.5 hPa SSE 7.4 km/h 6.1 km/h 80 % 0 mm
05:00 10.6 °C 6.3 °C 1016.8 hPa SSE 4.8 km/h 9.7 km/h 75 % 0 mm
05:04 9.3 °C 6 °C 1015.5 hPa SSE 5.6 km/h 3.5 km/h 80 % 0 mm
05:05 10.6 °C 6.3 °C 1016.5 hPa SSE 4.8 km/h 9.7 km/h 75 % 0 mm
05:09 9.2 °C 5.9 °C 1015.5 hPa North 3.7 km/h 1.1 km/h 80 % 0 mm
05:10 10.6 °C 6.2 °C 1016.5 hPa SSE 4.8 km/h 9.7 km/h 74 % 0 mm
05:14 9.2 °C 5.9 °C 1015.5 hPa SSE 3.7 km/h 1.8 km/h 80 % 0 mm
05:15 10.6 °C 6.3 °C 1016.5 hPa SSE 8 km/h 9.7 km/h 75 % 0 mm
05:19 9 °C 5.7 °C 1015.5 hPa SSE 3.7 km/h 2.1 km/h 80 % 0 mm
05:20 10.5 °C 6.3 °C 1016.5 hPa SSE 3.2 km/h 9.7 km/h 75 % 0 mm
05:24 8.9 °C 5.8 °C 1015.5 hPa SSE 5.6 km/h 2.1 km/h 81 % 0 mm
05:25 10.5 °C 6.3 °C 1016.5 hPa SSE 3.2 km/h 8 km/h 75 % 0 mm
05:29 8.8 °C 5.7 °C 1015.5 hPa SSE 5.6 km/h 2.9 km/h 81 % 0 mm
05:30 10.4 °C 6.2 °C 1016.1 hPa SSE 4.8 km/h 8 km/h 75 % 0 mm
05:34 8.7 °C 5.6 °C 1015.5 hPa SSE 1.9 km/h   81 % 0 mm
05:35 10.4 °C 6.2 °C 1016.1 hPa SSE 4.8 km/h 9.7 km/h 75 % 0 mm
05:39 8.4 °C 5.4 °C 1015.5 hPa SSE 3.7 km/h 1.6 km/h 81 % 0 mm
05:40 10.3 °C 6.1 °C 1016.1 hPa SSE 4.8 km/h 9.7 km/h 75 % 0 mm
05:44 8.3 °C 5.4 °C 1015.5 hPa SSE 3.7 km/h 1.9 km/h 82 % 0 mm
05:45 10.3 °C 6.1 °C 1016.1 hPa SSE 4.8 km/h 9.7 km/h 75 % 0 mm
05:49 8.3 °C 5.6 °C 1015.5 hPa SSE 1.9 km/h 1.1 km/h 83 % 0 mm
05:50 10.2 °C 6 °C 1016.1 hPa SSE 4.8 km/h 8 km/h 75 % 0 mm
05:54 8.2 °C 5.4 °C 1015.5 hPa SSE 6.4 km/h 2.9 km/h 83 % 0 mm
05:55 10.2 °C 6.1 °C 1016.1 hPa SSE 1.6 km/h 6.4 km/h 76 % 0 mm
05:59 8.1 °C 5.3 °C 1015.1 hPa SSE 5.6 km/h 4.2 km/h 83 % 0 mm
06:00 10.1 °C 6.1 °C 1016.1 hPa SSE 4.8 km/h 8 km/h 76 % 0 mm
06:04 7.8 °C 5.1 °C 1015.1 hPa SSE 3.2 km/h 2.4 km/h 83 % 0 mm
06:05 10.1 °C 6 °C 1016.1 hPa SSE 3.2 km/h 8 km/h 76 % 0 mm
06:09 7.7 °C 4.9 °C 1015.5 hPa North 3.7 km/h 2.3 km/h 83 % 0 mm
06:10 10 °C 5.9 °C 1016.1 hPa Calm   6.4 km/h 76 % 0 mm
06:14 7.6 °C 5 °C 1015.5 hPa SSE 3.7 km/h 2.6 km/h 84 % 0 mm
06:15 9.9 °C 6.1 °C 1016.1 hPa SSE 3.2 km/h 6.4 km/h 77 % 0 mm
06:19 7.4 °C 4.8 °C 1015.5 hPa SSE 3.2 km/h 1.1 km/h 84 % 0 mm
06:20 9.9 °C 6.1 °C 1016.1 hPa SSE 1.6 km/h 8 km/h 77 % 0 mm
06:24 7.2 °C 4.7 °C 1015.5 hPa Calm     84 % 0 mm
06:25 9.8 °C 6 °C 1016.1 hPa SSE 1.6 km/h 6.4 km/h 77 % 0 mm
06:29 7.1 °C 4.8 °C 1015.1 hPa North 3.7 km/h 2.4 km/h 85 % 0 mm
06:30 9.8 °C 5.9 °C 1016.1 hPa SSE 3.2 km/h 6.4 km/h 77 % 0 mm
06:34 7 °C 4.7 °C 1015.1 hPa Calm     85 % 0 mm
06:35 9.6 °C 5.9 °C 1015.8 hPa SSE 3.2 km/h 6.4 km/h 78 % 0 mm
06:39 6.9 °C 4.6 °C 1015.5 hPa SSE 3.7 km/h 1.8 km/h 85 % 0 mm
06:40 9.5 °C 5.8 °C 1015.8 hPa SSE 4.8 km/h 6.4 km/h 78 % 0 mm
06:44 6.8 °C 4.6 °C 1015.5 hPa SSE 3.7 km/h 2.1 km/h 86 % 0 mm
06:45 9.4 °C 5.9 °C 1015.8 hPa SSE 4.8 km/h 8 km/h 79 % 0 mm
06:49 6.7 °C 4.6 °C 1015.5 hPa North 3.7 km/h 2.1 km/h 86 % 0 mm
06:50 9.4 °C 5.9 °C 1015.8 hPa SSE 4.8 km/h 8 km/h 79 % 0 mm
06:54 6.6 °C 4.4 °C 1015.5 hPa SSE 3.7 km/h 0.2 km/h 86 % 0 mm
06:55 9.3 °C 5.9 °C 1015.8 hPa SSE 8 km/h 8 km/h 79 % 0 mm
06:59 6.5 °C 4.3 °C 1015.5 hPa SSE 1.9 km/h 1 km/h 86 % 0 mm
07:00 9.3 °C 6.1 °C 1015.8 hPa SSE 4.8 km/h 9.7 km/h 80 % 0 mm
07:04 6.6 °C 4.8 °C 1015.8 hPa North 5.6 km/h 1.8 km/h 88 % 0 mm
07:05 9.3 °C 6.1 °C 1015.5 hPa SSE 4.8 km/h 9.7 km/h 80 % 0 mm
07:09 6.7 °C 4.8 °C 1015.8 hPa SSE 5.6 km/h 1.3 km/h 88 % 0 mm
07:10 9.3 °C 6.1 °C 1015.5 hPa SSE 4.8 km/h 8 km/h 80 % 0 mm
07:14 6.7 °C 4.8 °C 1015.8 hPa North 3.7 km/h   88 % 0 mm
07:15 9.2 °C 5.9 °C 1015.5 hPa Calm   6.4 km/h 80 % 0 mm
07:19 6.7 °C 4.9 °C 1015.8 hPa SSE 3.7 km/h 0.3 km/h 88 % 0 mm
07:20 9.2 °C 5.9 °C 1015.8 hPa SSE 1.6 km/h 3.2 km/h 80 % 0 mm
07:24 6.8 °C 5.2 °C 1015.8 hPa Calm     89 % 0 mm
07:25 9 °C 5.7 °C 1015.5 hPa SSE 1.6 km/h 6.4 km/h 80 % 0 mm
07:29 7 °C 5.3 °C 1015.8 hPa Calm     89 % 0 mm
07:30 8.9 °C 5.8 °C 1015.5 hPa SSE 1.6 km/h 6.4 km/h 81 % 0 mm
07:34 6.9 °C 5.1 °C 1015.8 hPa SSE 3.7 km/h   88 % 0 mm
07:35 8.8 °C 5.7 °C 1015.5 hPa SSE 3.2 km/h 6.4 km/h 81 % 0 mm
07:39 7 °C 5.3 °C 1016.1 hPa North 3.7 km/h 2.1 km/h 89 % 0 mm
07:40 8.6 °C 5.6 °C 1015.5 hPa Calm   3.2 km/h 81 % 0 mm
07:44 7.1 °C 5.4 °C 1016.1 hPa SSE 3.7 km/h 3.5 km/h 89 % 0 mm
07:45 8.4 °C 5.4 °C 1015.5 hPa SSE 3.2 km/h 6.4 km/h 81 % 0 mm
07:49 7.3 °C 5.7 °C 1016.1 hPa SSE 5.6 km/h 2.3 km/h 89 % 0 mm
07:50 8.3 °C 5.4 °C 1015.5 hPa SSE 1.6 km/h 3.2 km/h 82 % 0 mm
07:54 7.5 °C 5.8 °C 1016.1 hPa SSE 5.6 km/h 1.9 km/h 89 % 0 mm
07:55 8.3 °C 5.6 °C 1015.5 hPa Calm   1.6 km/h 83 % 0 mm
07:59 7.7 °C 6 °C 1016.1 hPa SSE 5.6 km/h 2.4 km/h 89 % 0 mm
08:00 8.2 °C 5.4 °C 1015.5 hPa SSE 3.2 km/h 6.4 km/h 83 % 0 mm
08:04 8.1 °C 6.3 °C 1016.5 hPa SSE 3.7 km/h 1.4 km/h 89 % 0 mm
08:05 8 °C 5.3 °C 1015.1 hPa SSE 1.6 km/h 6.4 km/h 83 % 0 mm
08:09 8.3 °C 6.4 °C 1016.1 hPa SSE 7.4 km/h 4.5 km/h 88 % 0 mm
08:10 7.8 °C 5.1 °C 1015.5 hPa SSE 3.2 km/h 6.4 km/h 83 % 0 mm
08:14 8.6 °C 6.6 °C 1016.1 hPa SSE 5.6 km/h 3.2 km/h 87 % 0 mm
08:15 7.7 °C 5.1 °C 1015.5 hPa Calm   3.2 km/h 84 % 0 mm
08:19 9 °C 6.9 °C 1016.1 hPa SSE 6.4 km/h 2.4 km/h 87 % 0 mm
08:20 7.5 °C 4.9 °C 1015.5 hPa SSE 4.8 km/h 6.4 km/h 84 % 0 mm
08:24 9.3 °C 6.9 °C 1016.1 hPa SSE 5.6 km/h 1.4 km/h 85 % 0 mm
08:25 7.4 °C 4.8 °C 1015.1 hPa Calm   6.4 km/h 84 % 0 mm
08:29 9.8 °C 7.2 °C 1016.1 hPa SSE 5.6 km/h 1.3 km/h 84 % 0 mm
08:30 7.2 °C 4.7 °C 1015.1 hPa SSE 1.6 km/h 3.2 km/h 84 % 0 mm
08:34 10.2 °C 7.2 °C 1016.1 hPa SSE 7.4 km/h 3.7 km/h 82 % 0 mm
08:35 7.1 °C 4.8 °C 1015.1 hPa SSE 1.6 km/h 3.2 km/h 85 % 0 mm
08:39 10.5 °C 7.2 °C 1016.1 hPa SSE 11.3 km/h 6.9 km/h 80 % 0 mm
08:40 6.9 °C 4.6 °C 1015.1 hPa Calm     85 % 0 mm
08:42 10.6 °C 7.3 °C 1016.1 hPa SSE 7.4 km/h 3.9 km/h 80 % 0 mm
08:45 6.9 °C 4.6 °C 1015.5 hPa Calm   3.2 km/h 85 % 0 mm
08:50 6.8 °C 4.6 °C 1015.5 hPa Calm   3.2 km/h 86 % 0 mm
08:55 6.7 °C 4.5 °C 1015.5 hPa SSE 1.6 km/h 3.2 km/h 86 % 0 mm
09:00 6.6 °C 4.4 °C 1015.5 hPa Calm   3.2 km/h 86 % 0 mm
09:05 6.5 °C 4.5 °C 1015.5 hPa SSE 1.6 km/h 6.4 km/h 87 % 0 mm
09:10 6.6 °C 4.6 °C 1015.8 hPa SSE 1.6 km/h 8 km/h 87 % 0 mm
09:15 6.7 °C 4.8 °C 1015.8 hPa Calm   6.4 km/h 88 % 0 mm
09:20 6.7 °C 4.9 °C 1015.8 hPa SSE 1.6 km/h 3.2 km/h 88 % 0 mm
09:25 6.8 °C 4.9 °C 1015.8 hPa Calm   3.2 km/h 88 % 0 mm
09:30 6.9 °C 5.2 °C 1015.8 hPa Calm     89 % 0 mm
09:35 7 °C 5.3 °C 1015.8 hPa Calm     89 % 0 mm
09:40 6.9 °C 5.1 °C 1016.1 hPa Calm   3.2 km/h 88 % 0 mm
09:45 7 °C 5.3 °C 1016.1 hPa SSE 1.6 km/h 3.2 km/h 89 % 0 mm
09:50 7.2 °C 5.5 °C 1016.1 hPa SSE 3.2 km/h 6.4 km/h 89 % 0 mm
09:55 7.4 °C 5.7 °C 1016.1 hPa Calm   6.4 km/h 89 % 0 mm
10:00 7.6 °C 5.8 °C 1016.1 hPa SSE 1.6 km/h 6.4 km/h 89 % 0 mm
10:05 7.8 °C 6.1 °C 1016.1 hPa SSE 1.6 km/h 6.4 km/h 89 % 0 mm
10:10 8.1 °C 6.2 °C 1016.1 hPa SSE 3.2 km/h 8 km/h 88 % 0 mm
10:15 8.3 °C 6.3 °C 1016.1 hPa SSE 1.6 km/h 8 km/h 87 % 0 mm
10:20 8.7 °C 6.6 °C 1016.1 hPa SSE 1.6 km/h 9.7 km/h 87 % 0 mm
10:25 9.1 °C 6.8 °C 1016.1 hPa SSE 3.2 km/h 6.4 km/h 86 % 0 mm
10:30 9.4 °C 7.1 °C 1016.1 hPa Calm   6.4 km/h 85 % 0 mm
10:35 9.9 °C 7.3 °C 1016.1 hPa Calm   6.4 km/h 84 % 0 mm
10:40 10.3 °C 7.3 °C 1016.1 hPa SSE 1.6 km/h 8 km/h 82 % 0 mm
10:45 10.5 °C 7.2 °C 1016.1 hPa SSE 4.8 km/h 11.3 km/h 80 % 0 mm
10:50 10.8 °C 7.3 °C 1016.1 hPa SSE 4.8 km/h 8 km/h 79 % 0 mm
10:55 11 °C 7.3 °C 1016.1 hPa SSE 3.2 km/h 9.7 km/h 78 % 0 mm
11:00 11.3 °C 7.4 °C 1015.8 hPa SSE 1.6 km/h 9.7 km/h 77 % 0 mm
11:05 11.4 °C 7.3 °C 1016.1 hPa SSE 4.8 km/h 9.7 km/h 76 % 0 mm
11:10 11.5 °C 7.2 °C 1016.1 hPa SSE 3.2 km/h 12.9 km/h 75 % 0 mm
11:15 11.8 °C 7.5 °C 1016.1 hPa SSE 1.6 km/h 9.7 km/h 75 % 0 mm
11:20 12 °C 7.5 °C 1016.1 hPa SSE 3.2 km/h 9.7 km/h 74 % 0 mm
11:25 12.3 °C 7.6 °C 1016.1 hPa SSE 3.2 km/h 9.7 km/h 73 % 0 mm
11:30 12.6 °C 7.9 °C 1016.1 hPa SSE 4.8 km/h 9.7 km/h 73 % 0 mm
11:35 12.9 °C 8 °C 1016.1 hPa SSE 4.8 km/h 9.7 km/h 72 % 0 mm
11:40 13.2 °C 7.8 °C 1016.1 hPa SSE 4.8 km/h 8 km/h 70 % 0 mm
11:45 13.6 °C 8.2 °C 1016.1 hPa SSE 4.8 km/h 11.3 km/h 70 % 0 mm
11:50 13.9 °C 8.1 °C 1016.1 hPa SSE 9.7 km/h 11.3 km/h 68 % 0 mm
11:55 14.1 °C 8 °C 1016.1 hPa SSE 4.8 km/h 9.7 km/h 67 % 0 mm
12:00 14.2 °C 7.7 °C 1016.1 hPa SSE 8 km/h 14.5 km/h 65 % 0 mm
12:05 14.6 °C 8.1 °C 1016.1 hPa SSE 4.8 km/h 9.7 km/h 65 % 0 mm
12:10 15.2 °C 8 °C 1016.5 hPa SSE 8 km/h 14.5 km/h 62 % 0 mm
12:15 15.6 °C 7.3 °C 1016.5 hPa SSE 9.7 km/h 14.5 km/h 58 % 0 mm
12:20 15.8 °C 6.8 °C 1016.5 hPa SSE 11.3 km/h 20.9 km/h 55 % 0 mm
12:25 15.9 °C 6.6 °C 1016.5 hPa SSE 9.7 km/h 12.9 km/h 54 % 0 mm
12:30 16.3 °C 6.9 °C 1016.5 hPa SSE 11.3 km/h 14.5 km/h 54 % 0 mm
12:35 16.6 °C 6.7 °C 1016.5 hPa SSE 8 km/h 14.5 km/h 52 % 0 mm
12:40 16.4 °C 6.3 °C 1016.5 hPa SSE 11.3 km/h 14.5 km/h 51 % 0 mm
12:45 16.4 °C 6.5 °C 1016.5 hPa SSE 4.8 km/h 14.5 km/h 52 % 0 mm
12:50 16.6 °C 6.4 °C 1016.5 hPa SSE 9.7 km/h 16.1 km/h 51 % 0 mm
12:55 16.9 °C 6.4 °C 1016.8 hPa SSE 9.7 km/h 17.7 km/h 50 % 0 mm
13:00 17 °C 6.2 °C 1016.8 hPa SSE 4.8 km/h 16.1 km/h 49 % 0 mm
13:05 16.9 °C 6.4 °C 1016.8 hPa SSE 12.9 km/h 17.7 km/h 50 % 0 mm
13:10 16.9 °C 6.4 °C 1016.8 hPa South 12.9 km/h 16.1 km/h 50 % 0 mm
13:15 17.1 °C 6.6 °C 1016.5 hPa South 9.7 km/h 16.1 km/h 50 % 0 mm
13:20 17.8 °C 6.6 °C 1016.5 hPa South 12.9 km/h 20.9 km/h 48 % 0 mm
13:25 18.1 °C 5.9 °C 1016.5 hPa South 9.7 km/h 17.7 km/h 45 % 0 mm
13:30 18 °C 5.9 °C 1016.5 hPa SSE 16.1 km/h 22.5 km/h 45 % 0 mm
13:34 20.2 °C 6.1 °C 1015.1 hPa SE 18.5 km/h 14.2 km/h 40 % 0 mm
13:35 17.9 °C 5.4 °C 1016.5 hPa South 12.9 km/h 22.5 km/h 44 % 0 mm
13:39 20.5 °C 6.1 °C 1015.1 hPa SW 16.7 km/h 10.5 km/h 39 % 0 mm
13:40 17.9 °C 5.4 °C 1016.5 hPa SSW 12.9 km/h 20.9 km/h 44 % 0 mm
13:44 20.6 °C 5.4 °C 1015.1 hPa SW 14.8 km/h 12.4 km/h 37 % 0 mm
13:45 18.2 °C 5.8 °C 1016.5 hPa SSW 12.9 km/h 22.5 km/h 44 % 0 mm
13:49 20.9 °C 6.1 °C 1015.1 hPa South 16.7 km/h 13.8 km/h 38 % 0 mm
13:50 18.2 °C 5.8 °C 1016.5 hPa SSW 16.1 km/h 22.5 km/h 44 % 0 mm
13:54 21.1 °C 6.2 °C 1014.8 hPa SSE 11.1 km/h 4.2 km/h 38 % 0 mm
13:55 18.3 °C 6.1 °C 1016.5 hPa SSW 9.7 km/h 24.1 km/h 45 % 0 mm
13:59 21.2 °C 5.9 °C 1014.8 hPa South 25.9 km/h 14 km/h 37 % 0 mm
14:00 18.3 °C 5.8 °C 1016.5 hPa SSW 4.8 km/h 24.1 km/h 44 % 0 mm
14:04 20.9 °C 5.7 °C 1014.8 hPa SSW 20.4 km/h 16.1 km/h 37 % 0 mm
14:05 18.4 °C 5.6 °C 1016.5 hPa SSW 9.7 km/h 16.1 km/h 43 % 0 mm
14:09 20.9 °C 5.7 °C 1014.8 hPa South 14.8 km/h 11.4 km/h 37 % 0 mm
14:10 18.4 °C 5.9 °C 1016.1 hPa SSW 4.8 km/h 19.3 km/h 44 % 0 mm
14:14 20.9 °C 5.3 °C 1014.8 hPa SSW 16.1 km/h 12.1 km/h 36 % 0 mm
14:15 19.1 °C 6.2 °C 1016.1 hPa South 11.3 km/h 20.9 km/h 43 % 0 mm
14:19 20.9 °C 5.7 °C 1014.4 hPa SSW 16.7 km/h 10.9 km/h 37 % 0 mm
14:20 19.3 °C 5.7 °C 1016.1 hPa SSE 14.5 km/h 24.1 km/h 41 % 0 mm
14:24 21.3 °C 6 °C 1014.4 hPa South 14.8 km/h 9.2 km/h 37 % 0 mm
14:25 19 °C 5.4 °C 1016.1 hPa South 16.1 km/h 24.1 km/h 41 % 0 mm
14:29 21.6 °C 5.9 °C 1014.4 hPa SSW 22.2 km/h 17.9 km/h 36 % 0 mm
14:30 19 °C 5.8 °C 1015.8 hPa South 9.7 km/h 17.7 km/h 42 % 0 mm
14:34 21.4 °C 6.1 °C 1014.4 hPa SSW 18.5 km/h 7.1 km/h 37 % 0 mm
14:35 18.8 °C 6 °C 1015.8 hPa SSW 14.5 km/h 24.1 km/h 43 % 0 mm
14:39 21.6 °C 6.3 °C 1014.1 hPa SSW 11.1 km/h 9.3 km/h 37 % 0 mm
14:40 19.1 °C 5.9 °C 1015.8 hPa SSW 12.9 km/h 25.7 km/h 42 % 0 mm
14:44 21.7 °C 5.6 °C 1014.1 hPa South 18.5 km/h 8.5 km/h 35 % 0 mm
14:45 19.3 °C 6.1 °C 1015.8 hPa South 8 km/h 16.1 km/h 42 % 0 mm
14:49 21.9 °C 6.1 °C 1013.8 hPa South 14.5 km/h 10.1 km/h 36 % 0 mm
14:50 19.5 °C 5.9 °C 1015.8 hPa SSW 11.3 km/h 19.3 km/h 41 % 0 mm
14:54 22.1 °C 6.3 °C 1013.8 hPa SSW 5.6 km/h 3.5 km/h 36 % 0 mm
14:55 19.8 °C 6.2 °C 1015.8 hPa South 9.7 km/h 19.3 km/h 41 % 0 mm
14:59 22.3 °C 6.1 °C 1013.8 hPa SW 17.7 km/h 12.4 km/h 35 % 0 mm
15:00 19.9 °C 5.2 °C 1015.8 hPa SSE 11.3 km/h 19.3 km/h 38 % 0 mm
15:04 21.8 °C 6.1 °C 1013.8 hPa SSW 14.8 km/h 11.4 km/h 36 % 0 mm
15:05 19.6 °C 5.6 °C 1015.8 hPa South 4.8 km/h 20.9 km/h 40 % 0 mm
15:09 21.8 °C 6.1 °C 1013.8 hPa SSW 9.3 km/h 5 km/h 36 % 0 mm
15:10 19.8 °C 5.8 °C 1015.5 hPa South 16.1 km/h 22.5 km/h 40 % 0 mm
15:14 21.9 °C 5.8 °C 1013.8 hPa SSW 24.1 km/h 11.3 km/h 35 % 0 mm
15:15 19.9 °C 5.5 °C 1015.5 hPa South 14.5 km/h 24.1 km/h 39 % 0 mm
15:19 21.8 °C 6.1 °C 1013.8 hPa SSW 14.8 km/h 11.1 km/h 36 % 0 mm
15:20 19.7 °C 5.4 °C 1015.5 hPa SSW 11.3 km/h 16.1 km/h 39 % 0 mm
15:24 22.1 °C 5.9 °C 1013.8 hPa SW 16.7 km/h 12.4 km/h 35 % 0 mm
15:25 20 °C 6 °C 1015.5 hPa SSW 14.5 km/h 25.7 km/h 40 % 0 mm
15:29 22 °C 5.8 °C 1013.8 hPa SSW 18.5 km/h 11.6 km/h 35 % 0 mm
15:30 20.1 °C 5.7 °C 1015.5 hPa SSW 12.9 km/h 20.9 km/h 39 % 0 mm
15:34 22.1 °C 5.9 °C 1013.4 hPa South 12.9 km/h 6.9 km/h 35 % 0 mm
15:35 20 °C 5.6 °C 1015.5 hPa SSW 3.2 km/h 20.9 km/h 39 % 0 mm
15:39 22.2 °C 6.4 °C 1013.4 hPa South 18.5 km/h 11.4 km/h 36 % 0 mm
15:40 20.3 °C 5.9 °C 1015.1 hPa SSW 14.5 km/h 20.9 km/h 39 % 0 mm
15:44 22.4 °C 6.6 °C 1013.4 hPa South 14.8 km/h 6.8 km/h 36 % 0 mm
15:45 20.6 °C 5.4 °C 1015.1 hPa SSW 14.5 km/h 22.5 km/h 37 % 0 mm
15:49 22.5 °C 5.8 °C 1013.4 hPa South 16.7 km/h 10.1 km/h 34 % 0 mm
15:50 20.6 °C 5.8 °C 1015.1 hPa SW 8 km/h 17.7 km/h 38 % 0 mm
15:54 22.7 °C 6.4 °C 1013.4 hPa SSE 20.4 km/h 8.9 km/h 35 % 0 mm
15:55 20.9 °C 6.4 °C 1015.1 hPa SSW 9.7 km/h 19.3 km/h 39 % 0 mm
15:59 23.1 °C 6.4 °C 1013.4 hPa South 9.7 km/h 6.9 km/h 34 % 0 mm
16:00 21.2 °C 5.9 °C 1015.1 hPa South 12.9 km/h 16.1 km/h 37 % 0 mm
16:04 23.2 °C 6 °C 1013.4 hPa South 20.4 km/h 11.1 km/h 33 % 0 mm
16:05 21.2 °C 5.9 °C 1015.1 hPa South 11.3 km/h 25.7 km/h 37 % 0 mm
16:09 22.7 °C 6.1 °C 1013.1 hPa South 8 km/h 7.1 km/h 34 % 0 mm
16:10 20.8 °C 5.6 °C 1014.8 hPa SSW 11.3 km/h 20.9 km/h 37 % 0 mm
16:14 22.8 °C 6.1 °C 1013.1 hPa South 29.6 km/h 13 km/h 34 % 0 mm
16:19 22.6 °C 5.5 °C 1013.4 hPa SSW 20.4 km/h 13.8 km/h 33 % 0 mm
16:24 22.4 °C 4.9 °C 1013.1 hPa SW 20.9 km/h 13.2 km/h 32 % 0 mm
16:29 22.6 °C 5 °C 1013.1 hPa SSW 20.4 km/h 9.3 km/h 32 % 0 mm
16:34 22.7 °C 5.6 °C 1013.1 hPa SSW 9.3 km/h 6.1 km/h 33 % 0 mm
16:39 23.1 °C 5.4 °C 1013.1 hPa SSE 18.5 km/h 13.7 km/h 32 % 0 mm
16:44 23.1 °C 5.1 °C 1013.1 hPa SSW 16.7 km/h 7.7 km/h 31 % 0 mm
16:49 23.2 °C 4.6 °C 1013.1 hPa SW 13 km/h 7.4 km/h 30 % 0 mm
16:54 23.1 °C 5 °C 1013.1 hPa WSW 16.7 km/h 14.2 km/h 31 % 0 mm
16:59 22.8 °C 4.8 °C 1013.1 hPa SW 16.7 km/h 11.1 km/h 31 % 0 mm
17:04 22.7 °C 4.7 °C 1013.1 hPa SSW 27.8 km/h 18 km/h 31 % 0 mm
17:09 22.6 °C 4.6 °C 1013.1 hPa SW 14.8 km/h 7.9 km/h 31 % 0 mm
17:14 22.8 °C 4.8 °C 1012.8 hPa WSW 18.5 km/h 13.7 km/h 31 % 0 mm
17:19 22.8 °C 4.3 °C 1012.8 hPa SSW 16.7 km/h 12.1 km/h 30 % 0 mm
17:24 22.8 °C 4.8 °C 1013.1 hPa SSE 16.1 km/h 11.9 km/h 31 % 0 mm
17:29 22.8 °C 4.8 °C 1013.1 hPa SSW 14.8 km/h 13.2 km/h 31 % 0 mm
17:34 22.7 °C 4.7 °C 1012.8 hPa SSW 14.8 km/h 9.8 km/h 31 % 0 mm
17:39 22.7 °C 5.2 °C 1012.8 hPa SSW 13 km/h 9 km/h 32 % 0 mm
17:44 22.9 °C 4.8 °C 1012.8 hPa SSW 14.8 km/h 8.7 km/h 31 % 0 mm
17:49 22.7 °C 4.7 °C 1012.8 hPa SSW 14.8 km/h 11.1 km/h 31 % 0 mm
17:54 22.8 °C 5.2 °C 1012.8 hPa SSW 14.5 km/h 10.1 km/h 32 % 0 mm
17:59 22.8 °C 4.8 °C 1012.8 hPa SSW 18.5 km/h 11.1 km/h 31 % 0 mm
18:04 22.7 °C 4.7 °C 1012.8 hPa SSW 16.7 km/h 10.6 km/h 31 % 0 mm
18:09 22.6 °C 4.6 °C 1013.1 hPa SSW 18.5 km/h 8.9 km/h 31 % 0 mm
18:14 22.5 °C 5 °C 1012.8 hPa South 18.5 km/h 11.7 km/h 32 % 0 mm
18:19 22.6 °C 5 °C 1012.8 hPa South 14.8 km/h 10.1 km/h 32 % 0 mm
18:24 22.6 °C 5 °C 1013.1 hPa SSW 18.5 km/h 8 km/h 32 % 0 mm
18:29 22.6 °C 5 °C 1013.1 hPa SSW 18.5 km/h 16.7 km/h 32 % 0 mm
18:34 22.4 °C 4.9 °C 1013.1 hPa North 16.7 km/h 12.2 km/h 32 % 0 mm
18:39 22.3 °C 4.8 °C 1013.1 hPa SSW 18.5 km/h 8.9 km/h 32 % 0 mm
18:44 22.3 °C 4.8 °C 1013.1 hPa SW 20.4 km/h 11.3 km/h 32 % 0 mm
18:49 22.1 °C 4.6 °C 1013.4 hPa SW 18.5 km/h 10.6 km/h 32 % 0 mm
18:54 22 °C 4.6 °C 1013.4 hPa SSW 13 km/h 7.9 km/h 32 % 0 mm
18:56 22 °C 4.6 °C 1013.4 hPa SSW 17.7 km/h 13.2 km/h 32 % 0 mm
19:04 21.8 °C 4.3 °C 1013.4 hPa SSW 20.4 km/h 12.2 km/h 32 % 0 mm
19:09 21.7 °C 4.7 °C 1013.4 hPa SSW 19.3 km/h 13.7 km/h 33 % 0 mm
19:15 22.7 °C 4.7 °C 1013.1 hPa SW 9.7 km/h 20.9 km/h 31 % 0 mm
19:19 20.9 °C 6.8 °C 1013.8 hPa South 18.5 km/h 9.5 km/h 40 % 0 mm
19:24 20.6 °C 6.8 °C 1013.8 hPa South 25.9 km/h 11.6 km/h 41 % 0 mm
19:29 20.2 °C 6.9 °C 1013.8 hPa North 20.4 km/h 11.7 km/h 42 % 0 mm
19:34 19.9 °C 6.9 °C 1014.1 hPa South 27.8 km/h 11.6 km/h 43 % 0 mm
19:39 19.6 °C 7.3 °C 1014.1 hPa South 24.1 km/h 13 km/h 45 % 0 mm
19:44 19.1 °C 7.2 °C 1014.1 hPa South 31.5 km/h 15 km/h 46 % 0 mm
19:49 18.8 °C 7.3 °C 1014.1 hPa SSE 16.7 km/h 13.4 km/h 47 % 0 mm
19:54 18.6 °C 7.4 °C 1014.4 hPa South 16.7 km/h 9.3 km/h 48 % 0 mm
19:59 18.4 °C 7.2 °C 1014.4 hPa South 18.5 km/h 6.9 km/h 48 % 0 mm
20:04 18.2 °C 7.3 °C 1014.4 hPa South 22.2 km/h 9.5 km/h 49 % 0 mm
20:09 17.9 °C 7.3 °C 1014.4 hPa South 20.4 km/h 14.8 km/h 50 % 0 mm
20:14 17.6 °C 7.3 °C 1014.4 hPa SSE 25.9 km/h 14.3 km/h 51 % 0 mm
20:19 17.3 °C 7.1 °C 1014.8 hPa South 22.2 km/h 13.4 km/h 51 % 0 mm
20:24 17 °C 7.1 °C 1014.8 hPa South 22.2 km/h 13.4 km/h 52 % 0 mm
20:29 16.8 °C 7.2 °C 1014.8 hPa South 19.3 km/h 11.6 km/h 53 % 0 mm
20:34 16.6 °C 6.9 °C 1015.1 hPa South 16.1 km/h 12.1 km/h 53 % 0 mm
20:39 16.4 °C 7.1 °C 1015.1 hPa South 16.7 km/h 7.2 km/h 54 % 0 mm
20:44 16.2 °C 7.1 °C 1015.1 hPa South 17.7 km/h 12.4 km/h 55 % 0 mm
20:49 15.9 °C 6.9 °C 1015.5 hPa SSW 24.1 km/h 11.6 km/h 55 % 0 mm
20:54 15.7 °C 7.2 °C 1015.5 hPa South 14.8 km/h 11.3 km/h 57 % 0 mm
20:59 15.5 °C 7.3 °C 1015.8 hPa South 18.5 km/h 12.4 km/h 58 % 0 mm
21:04 15.3 °C 7.3 °C 1015.8 hPa South 14.8 km/h 8.5 km/h 59 % 0 mm
21:09 15.1 °C 7.4 °C 1015.8 hPa South 12.9 km/h 10.1 km/h 60 % 0 mm
21:14 14.9 °C 7.5 °C 1015.8 hPa South 20.4 km/h 12.1 km/h 61 % 0 mm
21:19 14.8 °C 7.6 °C 1015.8 hPa South 14.8 km/h 7.2 km/h 62 % 0 mm
21:24 14.6 °C 7.7 °C 1015.8 hPa South 18.5 km/h 9.3 km/h 63 % 0 mm
21:29 14.4 °C 7.7 °C 1016.1 hPa South 14.8 km/h 6.8 km/h 64 % 0 mm
21:34 14.3 °C 7.6 °C 1016.1 hPa South 14.8 km/h 9.3 km/h 64 % 0 mm
21:39 14.2 °C 7.7 °C 1016.1 hPa SSW 20.4 km/h 13.2 km/h 65 % 0 mm
21:44 14.1 °C 7.6 °C 1016.1 hPa South 16.7 km/h 6.1 km/h 65 % 0 mm
21:49 13.9 °C 7.6 °C 1016.5 hPa South 16.7 km/h 11.1 km/h 66 % 0 mm
21:54 13.8 °C 7.8 °C 1016.5 hPa South 14.8 km/h 10 km/h 67 % 0 mm
21:59 13.6 °C 7.6 °C 1016.5 hPa South 14.8 km/h 10 km/h 67 % 0 mm
22:04 13.5 °C 7.7 °C 1016.5 hPa South 13 km/h 10 km/h 68 % 0 mm
22:09 13.3 °C 7.6 °C 1016.5 hPa South 13 km/h 6.3 km/h 68 % 0 mm
22:14 13.2 °C 7.6 °C 1016.5 hPa South 12.9 km/h 10.6 km/h 69 % 0 mm
22:19 12.9 °C 7.6 °C 1016.5 hPa South 14.8 km/h 10.9 km/h 70 % 0 mm
22:24 12.9 °C 7.6 °C 1016.5 hPa South 18.5 km/h 8 km/h 70 % 0 mm
22:29 12.8 °C 7.7 °C 1016.5 hPa South 16.7 km/h 7.1 km/h 71 % 0 mm
22:34 12.8 °C 7.7 °C 1016.5 hPa South 13 km/h 9.7 km/h 71 % 0 mm
22:39 12.7 °C 7.8 °C 1016.5 hPa South 13 km/h 7.6 km/h 72 % 0 mm
22:44 12.6 °C 7.7 °C 1016.8 hPa South 14.8 km/h 10.9 km/h 72 % 0 mm
22:49 12.4 °C 7.7 °C 1016.8 hPa North 7.4 km/h 7.9 km/h 73 % 0 mm
22:54 12.4 °C 7.7 °C 1016.5 hPa South 16.7 km/h 8.4 km/h 73 % 0 mm
22:59 12.3 °C 7.8 °C 1016.5 hPa South 13 km/h 8.5 km/h 74 % 0 mm
23:04 12.2 °C 7.7 °C 1016.5 hPa South 11.1 km/h 8.7 km/h 74 % 0 mm
23:09 12.2 °C 7.9 °C 1016.8 hPa South 13 km/h 7.9 km/h 75 % 0 mm
23:14 12 °C 7.7 °C 1016.8 hPa South 13 km/h 9.3 km/h 75 % 0 mm
23:19 11.9 °C 7.8 °C 1016.8 hPa South 13 km/h 6.3 km/h 76 % 0 mm
23:24 11.8 °C 7.9 °C 1016.8 hPa South 13 km/h 7.9 km/h 77 % 0 mm
23:29 11.7 °C 8 °C 1016.8 hPa South 13 km/h 9.5 km/h 78 % 0 mm
23:34 11.6 °C 7.9 °C 1016.5 hPa North 12.9 km/h 7.6 km/h 78 % 0 mm
23:39 11.6 °C 7.9 °C 1016.5 hPa North 9.7 km/h 6.9 km/h 78 % 0 mm
23:44 11.4 °C 7.9 °C 1016.5 hPa South 11.1 km/h 4.3 km/h 79 % 0 mm
23:49 11.4 °C 7.9 °C 1016.5 hPa North 14.8 km/h 9.2 km/h 79 % 0 mm
23:54 11.3 °C 7.9 °C 1016.5 hPa South 11.1 km/h 9.3 km/h 80 % 0 mm
23:59 11.2 °C 7.9 °C 1016.8 hPa South 9.7 km/h 4.7 km/h 80 % 0 mm
Ararat Weather
Compliments of Weather Underground - 3.25 mb
Click here to send mail.


ABOUT

Live weather data from Ararat, Victoria, Australia, 3377
Data uploaded from Cumulus every 5 minutes to Weather Underground.
This site then downloads the raw data for formatting and display.
Metric and imperial data can be displayed. Graphs and historical data available.
Includes Sun and Moon times and rain image live from BOM.

Check out Ararat Weather on Facebook, Twitter and Google +

Help support ongoing costs by checking out the ads





Follow @AraratWeather